createdAt,value
2019-04-23T00:02:42.186Z,13.41
2019-04-23T00:05:02.747Z,13.38
2019-04-23T00:07:41.493Z,13.31
2019-04-23T00:10:12.637Z,13.25
2019-04-23T00:15:13.530Z,13.19
2019-04-23T00:17:48.833Z,13.12
2019-04-23T00:20:20.167Z,13.00
2019-04-23T00:23:11.390Z,12.95
2019-04-23T00:25:56.131Z,12.91
2019-04-23T00:28:30.139Z,12.90
2019-04-23T00:30:56.827Z,12.85
2019-04-23T00:33:29.662Z,12.77
2019-04-23T00:36:02.637Z,12.77
2019-04-23T00:38:41.201Z,12.68
2019-04-23T00:41:09.513Z,12.68
2019-04-23T00:43:43.200Z,12.60
2019-04-23T00:46:16.957Z,12.53
2019-04-23T00:48:53.131Z,12.54
2019-04-23T00:51:19.064Z,12.53
2019-04-23T00:53:51.351Z,12.46
2019-04-23T00:59:00.693Z,12.37
2019-04-23T01:01:41.223Z,12.36
2019-04-23T01:04:13.813Z,12.31
2019-04-23T01:06:37.898Z,12.26
2019-04-23T01:09:10.412Z,12.27
2019-04-23T01:11:43.338Z,12.22
2019-04-23T01:16:45.862Z,12.10
2019-04-23T01:19:43.998Z,12.05
2019-04-23T01:21:45.347Z,12.04
2019-04-23T01:24:40.022Z,11.96
2019-04-23T01:32:41.020Z,11.99
2019-04-23T01:35:20.203Z,11.99
2019-04-23T01:37:47.706Z,11.96
2019-04-23T01:40:27.257Z,11.90
2019-04-23T01:43:07.925Z,11.86
2019-04-23T01:45:26.943Z,11.85
2019-04-23T01:47:59.787Z,11.77
2019-04-23T01:50:43.782Z,11.70
2019-04-23T01:53:16.296Z,11.62
2019-04-23T01:55:46.973Z,11.61
2019-04-23T01:58:38.273Z,11.69
2019-04-23T02:03:20.877Z,11.49
2019-04-23T02:08:28.075Z,11.50
2019-04-23T02:11:00.570Z,11.46
2019-04-23T02:13:38.801Z,11.40
2019-04-23T02:16:03.031Z,11.39
2019-04-23T02:18:45.496Z,11.30
2019-04-23T02:21:15.478Z,11.29
2019-04-23T02:26:32.832Z,11.28
2019-04-23T02:29:03.285Z,11.30
2019-04-23T02:36:45.224Z,11.24
2019-04-23T02:39:11.642Z,11.18
2019-04-23T02:41:54.372Z,11.13
2019-04-23T02:44:33.361Z,11.13
2019-04-23T02:47:19.356Z,11.12
2019-04-23T02:49:44.277Z,11.11
2019-04-23T02:52:11.017Z,11.05
2019-04-23T02:54:44.575Z,11.09
2019-04-23T02:57:05.681Z,11.09
2019-04-23T03:00:05.760Z,11.03
2019-04-23T03:07:34.858Z,10.93
2019-04-23T03:09:58.884Z,10.89
2019-04-23T03:15:22.180Z,10.87
2019-04-23T03:21:07.505Z,10.75
2019-04-23T03:23:34.395Z,10.73
2019-04-23T03:26:32.475Z,10.61
2019-04-23T03:28:55.297Z,10.64
2019-04-23T03:34:15.161Z,10.61
2019-04-23T03:41:41.762Z,10.57
2019-04-23T03:43:52.862Z,10.53
2019-04-23T03:46:36.579Z,10.59
2019-04-23T03:52:02.947Z,10.56
2019-04-23T04:02:00.646Z,10.50
2019-04-23T04:12:14.935Z,10.46
2019-04-23T04:17:15.938Z,10.46
2019-04-23T04:24:48.320Z,10.43
2019-04-23T04:30:00.936Z,10.43
2019-04-23T04:32:30.825Z,10.47
2019-04-23T04:40:29.559Z,10.43
2019-04-23T04:42:44.700Z,10.49
2019-04-23T04:47:45.390Z,10.51
2019-04-23T04:50:25.855Z,10.55
2019-04-23T04:52:58.313Z,10.57
2019-04-23T04:55:26.286Z,10.57
2019-04-23T05:00:44.056Z,10.67
2019-04-23T05:08:20.023Z,10.76
2019-04-23T05:10:55.741Z,10.81
2019-04-23T05:15:53.885Z,10.92
2019-04-23T05:18:37.912Z,10.97
2019-04-23T05:21:14.450Z,11.03
2019-04-23T05:23:42.829Z,11.07
2019-04-23T05:26:51.775Z,11.13
2019-04-23T05:31:23.049Z,11.23
2019-04-23T05:34:02.970Z,11.31
2019-04-23T05:36:33.897Z,11.37
2019-04-23T05:39:07.635Z,11.49
2019-04-23T05:41:36.812Z,11.55
2019-04-23T05:44:18.508Z,11.64
2019-04-23T05:51:55.467Z,12.39
2019-04-23T05:56:53.930Z,13.56
2019-04-23T05:59:29.958Z,14.25
2019-04-23T06:01:58.831Z,14.61
2019-04-23T06:07:23.786Z,14.71
2019-04-23T06:09:41.434Z,14.81
2019-04-23T06:12:08.254Z,15.06
2019-04-23T06:14:48.754Z,15.01
2019-04-23T06:17:22.918Z,15.09
2019-04-23T06:19:53.017Z,14.92
2019-04-23T06:22:28.876Z,15.17
2019-04-23T06:25:04.295Z,15.10
2019-04-23T06:27:46.017Z,15.28
2019-04-23T06:30:04.530Z,15.62
2019-04-23T06:35:04.825Z,15.90
2019-04-23T06:38:04.851Z,15.79
2019-04-23T06:40:20.439Z,15.93
2019-04-23T06:43:05.056Z,16.20
2019-04-23T06:45:32.599Z,16.22
2019-04-23T06:48:16.625Z,16.64
2019-04-23T06:53:10.590Z,17.87
2019-04-23T06:55:49.461Z,16.93
2019-04-23T06:58:29.019Z,16.92
2019-04-23T07:00:55.891Z,17.01
2019-04-23T07:03:33.907Z,16.91
2019-04-23T07:06:23.564Z,16.41
2019-04-23T07:11:22.875Z,16.70
2019-04-23T07:13:53.493Z,16.48
2019-04-23T07:16:34.740Z,16.78
2019-04-23T07:18:54.528Z,16.84
2019-04-23T07:21:27.878Z,16.67
2019-04-23T07:26:36.076Z,16.96
2019-04-23T07:29:18.951Z,17.14
2019-04-23T07:31:44.603Z,17.27
2019-04-23T07:34:05.182Z,17.19
2019-04-23T07:36:40.581Z,17.22
2019-04-23T07:39:27.328Z,16.83
2019-04-23T07:42:24.773Z,16.80
2019-04-23T07:45:16.061Z,17.14
2019-04-23T07:48:19.600Z,17.43
2019-04-23T07:51:06.210Z,17.42
2019-04-23T07:53:48.275Z,17.86
2019-04-23T07:56:02.550Z,17.34
2019-04-23T07:58:36.485Z,16.99
2019-04-23T08:01:04.812Z,17.23
2019-04-23T08:03:43.909Z,17.65
2019-04-23T08:06:13.216Z,17.80
2019-04-23T08:08:52.575Z,16.75
2019-04-23T08:11:33.134Z,17.26
2019-04-23T08:16:33.612Z,17.02
2019-04-23T08:21:49.118Z,17.01
2019-04-23T08:24:25.821Z,17.03
2019-04-23T08:29:43.816Z,17.62
2019-04-23T08:35:10.995Z,17.47
2019-04-23T08:37:37.960Z,17.58
2019-04-23T08:42:45.644Z,17.76
2019-04-23T08:45:28.504Z,17.25
2019-04-23T08:48:30.810Z,17.45
2019-04-23T08:50:50.845Z,17.37
2019-04-23T08:56:18.434Z,17.56
2019-04-23T09:08:48.105Z,17.83
2019-04-23T09:13:59.712Z,18.11
2019-04-23T09:16:29.484Z,17.81
2019-04-23T09:19:04.583Z,18.33
2019-04-23T09:21:27.785Z,18.60
2019-04-23T09:24:04.236Z,19.07
2019-04-23T09:26:32.943Z,19.99
2019-04-23T09:29:17.296Z,19.55
2019-04-23T09:32:15.082Z,19.14
2019-04-23T09:34:52.720Z,19.05
2019-04-23T09:37:26.799Z,18.92
2019-04-23T09:40:34.412Z,19.88
2019-04-23T09:46:17.897Z,19.38
2019-04-23T09:48:54.199Z,19.01
2019-04-23T09:51:25.822Z,18.36
2019-04-23T09:53:56.256Z,18.26
2019-04-23T09:56:32.762Z,18.12
2019-04-23T09:59:09.260Z,17.98
2019-04-23T10:01:41.318Z,17.98
2019-04-23T10:03:59.074Z,18.25
2019-04-23T10:06:20.835Z,18.58
2019-04-23T10:08:53.536Z,18.81
2019-04-23T10:11:22.224Z,19.14
2019-04-23T10:13:54.811Z,19.01
2019-04-23T10:16:29.866Z,18.86
2019-04-23T10:19:00.997Z,19.19
2019-04-23T10:21:33.389Z,18.57
2019-04-23T10:24:05.420Z,18.95
2019-04-23T10:26:37.910Z,18.87
2019-04-23T10:29:14.045Z,19.02
2019-04-23T10:31:46.070Z,19.30
2019-04-23T10:34:18.963Z,19.02
2019-04-23T10:36:51.514Z,19.38
2019-04-23T10:39:28.313Z,19.34
2019-04-23T10:41:57.603Z,19.26
2019-04-23T10:44:50.394Z,19.26
2019-04-23T10:48:13.840Z,19.14
2019-04-23T10:50:52.858Z,19.31
2019-04-23T10:58:33.877Z,19.34
2019-04-23T11:01:05.045Z,19.65
2019-04-23T11:06:16.540Z,20.09
2019-04-23T11:08:41.246Z,19.76
2019-04-23T11:11:25.524Z,19.42
2019-04-23T11:13:56.558Z,19.28
2019-04-23T11:16:46.172Z,19.36
2019-04-23T11:19:10.757Z,19.41
2019-04-23T11:21:33.008Z,19.58
2019-04-23T11:24:10.967Z,19.70
2019-04-23T11:26:44.347Z,19.68
2019-04-23T11:29:12.906Z,19.48
2019-04-23T11:34:46.031Z,19.73
2019-04-23T11:39:23.328Z,20.03
2019-04-23T11:41:59.835Z,19.88
2019-04-23T11:44:36.483Z,19.92
2019-04-23T11:47:09.385Z,19.90
2019-04-23T11:54:43.184Z,20.42
2019-04-23T11:57:34.492Z,20.68
2019-04-23T12:00:05.511Z,20.76
2019-04-23T12:02:40.297Z,20.38
2019-04-23T12:05:21.561Z,20.36
2019-04-23T12:08:11.544Z,20.41
2019-04-23T12:11:35.145Z,20.65
2019-04-23T12:13:44.847Z,20.79
2019-04-23T12:16:20.117Z,20.61
2019-04-23T12:19:01.747Z,21.06
2019-04-23T12:21:29.471Z,21.37
2019-04-23T12:24:05.406Z,21.67
2019-04-23T12:29:09.892Z,20.92
2019-04-23T12:31:50.442Z,20.87
2019-04-23T12:34:09.633Z,21.19
2019-04-23T12:39:22.045Z,20.94
2019-04-23T12:41:51.156Z,21.01
2019-04-23T12:44:34.969Z,21.47
2019-04-23T12:47:05.549Z,21.12
2019-04-23T12:52:14.302Z,21.40
2019-04-23T12:55:02.856Z,21.43
2019-04-23T12:57:18.538Z,21.26
2019-04-23T12:59:49.779Z,21.40
2019-04-23T13:02:36.513Z,21.70
2019-04-23T13:04:52.326Z,21.38
2019-04-23T13:07:33.293Z,21.13
2019-04-23T13:10:06.402Z,21.29
2019-04-23T13:12:42.905Z,21.60
2019-04-23T13:15:13.813Z,21.60
2019-04-23T13:17:55.516Z,21.73
2019-04-23T13:20:20.400Z,21.87
2019-04-23T13:22:59.686Z,21.74
2019-04-23T13:25:39.917Z,22.12
2019-04-23T13:28:13.068Z,21.72
2019-04-23T13:30:54.861Z,21.58
2019-04-23T13:36:01.657Z,21.42
2019-04-23T13:38:34.945Z,21.85
2019-04-23T13:48:36.599Z,21.78
2019-04-23T13:53:49.603Z,22.22
2019-04-23T13:56:25.227Z,22.37
2019-04-23T13:58:59.894Z,21.97
2019-04-23T14:01:25.733Z,21.84
2019-04-23T14:04:04.275Z,21.80
2019-04-23T14:06:36.155Z,21.91
2019-04-23T14:09:14.751Z,21.60
2019-04-23T14:11:58.030Z,21.64
2019-04-23T14:14:39.222Z,21.86
2019-04-23T14:17:04.526Z,22.02
2019-04-23T14:19:26.180Z,21.90
2019-04-23T14:22:04.964Z,22.12
2019-04-23T14:24:45.967Z,22.39
2019-04-23T14:27:14.914Z,22.24
2019-04-23T14:29:48.146Z,22.36
2019-04-23T14:32:15.726Z,22.33
2019-04-23T14:34:54.170Z,22.23
2019-04-23T14:37:17.985Z,22.13
2019-04-23T14:39:52.770Z,22.43
2019-04-23T14:42:33.867Z,22.78
2019-04-23T14:45:13.089Z,23.06
2019-04-23T14:47:39.857Z,22.98
2019-04-23T14:50:29.294Z,23.01
2019-04-23T14:52:50.650Z,23.07
2019-04-23T14:55:40.210Z,22.91
2019-04-23T14:57:55.543Z,22.57
2019-04-23T15:00:27.032Z,22.70
2019-04-23T15:03:00.189Z,22.65
2019-04-23T15:05:27.661Z,22.83
2019-04-23T15:07:58.050Z,22.80
2019-04-23T15:10:34.715Z,23.25
2019-04-23T15:13:08.593Z,23.22
2019-04-23T15:16:03.831Z,22.77
2019-04-23T15:18:26.815Z,22.86
2019-04-23T15:21:07.633Z,22.67
2019-04-23T15:26:50.923Z,22.97
2019-04-23T15:28:11.219Z,23.18
2019-04-23T15:31:23.473Z,23.71
2019-04-23T15:38:56.176Z,23.87
2019-04-23T15:41:23.633Z,23.81
2019-04-23T15:43:59.861Z,24.08
2019-04-23T15:54:13.740Z,23.88
2019-04-23T15:59:21.086Z,23.88
2019-04-23T16:01:40.542Z,23.87
2019-04-23T16:03:53.804Z,24.30
2019-04-23T16:06:28.441Z,24.02
2019-04-23T16:09:15.725Z,24.10
2019-04-23T16:11:51.909Z,24.03
2019-04-23T16:14:31.235Z,24.36
2019-04-23T16:17:08.244Z,24.47
2019-04-23T16:20:12.662Z,24.85
2019-04-23T16:22:24.921Z,24.86
2019-04-23T16:27:29.285Z,23.88
2019-04-23T16:30:21.239Z,24.00
2019-04-23T16:36:04.078Z,23.59
2019-04-23T16:40:47.745Z,23.38
2019-04-23T16:43:30.361Z,23.55
2019-04-23T16:46:07.355Z,23.65
2019-04-23T16:51:18.144Z,23.56
2019-04-23T16:53:38.377Z,23.46
2019-04-23T16:56:18.351Z,23.51
2019-04-23T16:58:54.834Z,23.65
2019-04-23T17:01:39.692Z,23.68
2019-04-23T17:03:56.417Z,23.43
2019-04-23T17:09:05.205Z,23.52
2019-04-23T17:14:09.229Z,23.14
2019-04-23T17:19:17.842Z,23.01
2019-04-23T17:21:47.535Z,22.74
2019-04-23T17:26:57.233Z,22.47
2019-04-23T17:32:05.809Z,22.29
2019-04-23T17:34:46.517Z,22.17
2019-04-23T17:40:15.783Z,21.99
2019-04-23T17:42:48.278Z,21.99
2019-04-23T17:45:32.324Z,21.89
2019-04-23T17:51:11.461Z,21.77
2019-04-23T17:53:38.317Z,21.67
2019-04-23T17:56:27.225Z,21.63
2019-04-23T18:06:48.174Z,21.37
2019-04-23T18:09:11.202Z,21.20
2019-04-23T18:11:31.223Z,21.06
2019-04-23T18:14:16.540Z,20.95
2019-04-23T18:19:12.362Z,20.66
2019-04-23T18:22:09.103Z,20.55
2019-04-23T18:25:00.816Z,20.41
2019-04-23T18:27:23.401Z,20.37
2019-04-23T18:30:09.949Z,20.27
2019-04-23T18:38:18.568Z,20.02
2019-04-23T18:41:01.327Z,19.94
2019-04-23T18:43:26.513Z,19.82
2019-04-23T18:46:08.427Z,19.72
2019-04-23T18:51:03.330Z,19.59
2019-04-23T18:56:23.152Z,19.51
2019-04-23T19:01:22.941Z,19.42
2019-04-23T19:04:19.815Z,19.28
2019-04-23T19:07:05.433Z,19.23
2019-04-23T19:10:11.030Z,19.14
2019-04-23T19:12:38.305Z,19.09
2019-04-23T19:15:17.355Z,19.06
2019-04-23T19:22:55.061Z,18.89
2019-04-23T19:25:23.007Z,18.80
2019-04-23T19:27:57.487Z,18.79
2019-04-23T19:30:38.825Z,18.71
2019-04-23T19:33:17.617Z,18.69
2019-04-23T19:38:22.963Z,18.54
2019-04-23T19:40:56.761Z,18.56
2019-04-23T19:43:26.386Z,18.59
2019-04-23T19:46:02.036Z,18.51
2019-04-23T19:48:43.595Z,18.46
2019-04-23T19:51:08.906Z,18.47
2019-04-23T19:53:51.708Z,18.49
2019-04-23T19:58:44.922Z,18.41
2019-04-23T20:03:52.474Z,18.21
2019-04-23T20:06:42.279Z,18.07
2019-04-23T20:13:57.580Z,18.09
2019-04-23T20:16:46.778Z,18.04
2019-04-23T20:19:18.748Z,18.06
2019-04-23T20:22:00.681Z,18.07
2019-04-23T20:24:34.741Z,18.04
2019-04-23T20:27:06.182Z,18.03
2019-04-23T20:30:23.455Z,17.94
2019-04-23T20:38:09.362Z,17.91
2019-04-23T20:42:54.927Z,17.82
2019-04-23T20:45:20.328Z,17.80
2019-04-23T20:48:01.989Z,17.72
2019-04-23T20:50:26.207Z,17.74
2019-04-23T20:52:52.875Z,17.65
2019-04-23T20:55:47.535Z,17.61
2019-04-23T20:58:36.564Z,17.62
2019-04-23T21:01:18.662Z,17.62
2019-04-23T21:09:10.067Z,17.54
2019-04-23T21:11:26.000Z,17.40
2019-04-23T21:16:37.530Z,17.31
2019-04-23T21:19:05.810Z,17.18
2019-04-23T21:21:48.213Z,16.95
2019-04-23T21:24:27.438Z,16.84
2019-04-23T21:26:45.985Z,16.81
2019-04-23T21:29:13.138Z,16.87
2019-04-23T21:31:47.684Z,16.94
2019-04-23T21:34:48.967Z,16.96
2019-04-23T21:37:10.953Z,16.96
2019-04-23T21:40:26.847Z,16.97
2019-04-23T21:42:44.324Z,16.97
2019-04-23T21:45:06.337Z,16.78
2019-04-23T21:47:51.733Z,16.77
2019-04-23T21:50:23.171Z,16.75
2019-04-23T21:52:50.752Z,16.89
2019-04-23T21:55:20.214Z,16.76
2019-04-23T21:57:59.832Z,16.83
2019-04-23T22:00:34.599Z,16.77
2019-04-23T22:03:08.163Z,16.89
2019-04-23T22:05:47.897Z,16.78
2019-04-23T22:08:03.332Z,16.81
2019-04-23T22:10:49.358Z,16.80
2019-04-23T22:16:01.728Z,16.78
2019-04-23T22:18:12.685Z,16.78
2019-04-23T22:23:30.517Z,16.67
2019-04-23T22:26:14.633Z,16.66
2019-04-23T22:28:42.801Z,16.52
2019-04-23T22:31:12.335Z,16.45
2019-04-23T22:33:48.204Z,16.23
2019-04-23T22:36:09.821Z,16.19
2019-04-23T22:38:43.596Z,16.09
2019-04-23T22:41:16.312Z,16.03
2019-04-23T22:43:59.402Z,15.84
2019-04-23T22:46:25.286Z,15.82
2019-04-23T22:49:20.046Z,15.77
2019-04-23T22:54:13.779Z,15.58
2019-04-23T22:56:56.262Z,15.46
2019-04-23T23:02:29.035Z,15.32
2019-04-23T23:05:07.206Z,15.13
2019-04-23T23:07:41.511Z,14.97
2019-04-23T23:10:20.918Z,14.92
2019-04-23T23:17:58.440Z,14.72
2019-04-23T23:23:06.524Z,14.60
2019-04-23T23:25:25.599Z,14.58
2019-04-23T23:28:05.862Z,14.75
2019-04-23T23:33:03.689Z,15.15
2019-04-23T23:35:34.089Z,15.30
2019-04-23T23:38:13.646Z,15.34
2019-04-23T23:40:57.171Z,15.21
2019-04-23T23:45:57.928Z,15.46
2019-04-23T23:48:20.123Z,15.58
2019-04-23T23:51:00.420Z,15.52
2019-04-23T23:56:12.479Z,15.52
2019-04-23T23:58:43.747Z,15.45
